Time;durP1;ratioP1;P1;durP2;ratioP2;P2;SDS_P1;SDS_P2;PMS_P1;PMS_P2;Temp;Humidity;BMP_temperature;BMP_pressure;BME280_temperature;BME280_humidity;BME280_pressure;Samples;Min_cycle;Max_cycle;Signal;HPM_P1;HPM_P2
2022/10/22 00:01:15;;;;;;;5.22;2.38;;;;;;;14.37;57.00;100618.50;4999801;28;20098;-68
2022/10/22 00:03:43;;;;;;;4.00;2.40;;;;;;;14.38;57.09;100622.97;4996191;28;20459;-68
2022/10/22 00:06:11;;;;;;;5.28;2.50;;;;;;;14.39;56.74;100626.59;4997401;28;20085;-68
2022/10/22 00:08:39;;;;;;;3.30;2.20;;;;;;;14.39;57.02;100635.72;5009973;28;20139;-67
2022/10/22 00:11:09;;;;;;;4.63;2.28;;;;;;;14.41;57.40;100629.19;4993418;28;20486;-68
2022/10/22 00:13:38;;;;;;;4.88;2.60;;;;;;;14.41;57.16;100620.91;5003612;28;20104;-68
2022/10/22 00:16:07;;;;;;;4.35;2.58;;;;;;;14.42;57.34;100622.66;5002033;28;20081;-68
2022/10/22 00:18:36;;;;;;;4.70;2.50;;;;;;;14.41;56.88;100627.28;4993402;28;20397;-68
2022/10/22 00:21:05;;;;;;;5.07;2.50;;;;;;;14.41;57.27;100632.81;5003496;28;20391;-68
2022/10/22 00:23:34;;;;;;;4.00;2.67;;;;;;;14.40;57.49;100628.31;5016558;28;20109;-68
2022/10/22 00:26:02;;;;;;;4.72;2.70;;;;;;;14.38;57.41;100631.22;4999518;28;20492;-68
2022/10/22 00:28:30;;;;;;;4.78;2.40;;;;;;;14.39;56.92;100632.97;5006016;28;20096;-68
2022/10/22 00:30:58;;;;;;;3.92;2.40;;;;;;;14.39;57.12;100630.22;5008092;28;20045;-68
2022/10/22 00:33:29;;;;;;;5.22;2.70;;;;;;;14.42;57.34;100636.41;5004697;28;20046;-68
2022/10/22 00:35:57;;;;;;;4.63;2.67;;;;;;;14.39;57.45;100632.97;5007503;28;20128;-68
2022/10/22 00:38:26;;;;;;;4.70;2.70;;;;;;;14.38;57.15;100630.38;5001277;28;20038;-68
2022/10/22 00:40:54;;;;;;;5.22;2.50;;;;;;;14.37;57.05;100629.50;5004036;28;20062;-68
2022/10/22 00:43:22;;;;;;;4.90;2.53;;;;;;;14.38;57.04;100627.59;5005895;28;20338;-69
2022/10/22 00:45:50;;;;;;;4.28;2.45;;;;;;;14.38;57.62;100628.47;5007863;28;20058;-69
2022/10/22 00:48:22;;;;;;;5.22;2.65;;;;;;;14.39;57.53;100627.44;5003781;28;20053;-69
2022/10/22 00:50:55;;;;;;;5.15;2.50;;;;;;;14.38;57.44;100628.47;5006070;28;20430;-69
2022/10/22 00:53:27;;;;;;;6.20;2.83;;;;;;;14.38;57.82;100633.97;5008406;28;20042;-69
2022/10/22 00:55:55;;;;;;;4.30;2.40;;;;;;;14.37;57.51;100625.88;4997084;28;20439;-69
2022/10/22 00:58:28;;;;;;;6.07;2.75;;;;;;;14.41;57.28;100632.81;5009864;28;20117;-69
2022/10/22 01:00:57;;;;;;;5.00;2.40;;;;;;;14.39;57.12;100629.34;5000841;28;20041;-69
2022/10/22 01:03:25;;;;;;;3.60;2.50;;;;;;;14.40;57.39;100625.56;5006863;28;20042;-69
2022/10/22 01:05:58;;;;;;;4.00;2.80;;;;;;;14.41;57.51;100619.03;5010025;28;20045;-69
2022/10/22 01:08:35;;;;;;;4.78;2.25;;;;;;;14.40;57.20;100633.81;5006684;28;20283;-69
2022/10/22 01:11:13;;;;;;;5.55;2.70;;;;;;;14.41;57.85;100630.03;5003162;28;20046;-69
2022/10/22 01:13:53;;;;;;;6.97;2.53;;;;;;;14.42;57.58;100636.41;5006018;28;20050;-69
2022/10/22 01:16:30;;;;;;;4.70;2.95;;;;;;;14.42;57.93;100630.91;5011210;28;20054;-69
2022/10/22 01:19:10;;;;;;;3.90;2.50;;;;;;;14.42;57.47;100625.41;5002783;28;20042;-69
2022/10/22 01:21:44;;;;;;;4.53;2.50;;;;;;;14.43;57.58;100624.38;5008067;28;20104;-69
2022/10/22 01:24:35;;;;;;;4.85;2.25;;;;;;;14.43;57.75;100621.63;5000711;28;20096;-69
2022/10/22 01:27:24;;;;;;;4.85;2.70;;;;;;;14.43;57.76;100613.38;5004598;28;20551;-69
2022/10/22 01:29:58;;;;;;;4.55;2.20;;;;;;;14.44;57.68;100613.19;5003201;28;20041;-69
2022/10/22 01:32:28;;;;;;;6.22;2.58;;;;;;;14.42;57.82;100615.25;5004128;28;20074;-69
2022/10/22 01:35:01;;;;;;;6.07;2.58;;;;;;;14.45;57.70;100608.53;5003815;28;20034;-69
2022/10/22 01:37:31;;;;;;;4.80;2.78;;;;;;;14.44;57.63;100604.91;5008008;28;20050;-69
2022/10/22 01:40:01;;;;;;;4.88;2.50;;;;;;;14.45;57.48;100594.75;5005318;28;20556;-69
2022/10/22 01:42:29;;;;;;;4.85;2.33;;;;;;;14.44;57.90;100601.28;5006360;28;20046;-69
2022/10/22 01:44:59;;;;;;;5.05;2.55;;;;;;;14.48;57.35;100616.50;5005373;28;20044;-69
2022/10/22 01:47:43;;;;;;;4.22;2.40;;;;;;;14.47;58.07;100596.38;5008604;28;20050;-69
2022/10/22 01:50:27;;;;;;;4.95;2.45;;;;;;;14.48;57.95;100598.09;5007690;28;20042;-69
2022/10/22 01:53:07;;;;;;;4.05;2.20;;;;;;;14.48;57.58;100603.59;5003293;28;20540;-69
2022/10/22 01:55:43;;;;;;;3.70;2.17;;;;;;;14.49;57.73;100593.44;5008041;28;20526;-69
2022/10/22 01:58:20;;;;;;;5.90;2.85;;;;;;;14.49;58.06;100598.97;5009579;28;20042;-69
2022/10/22 02:00:58;;;;;;;5.22;2.40;;;;;;;14.49;57.93;100598.97;5009295;28;20060;-69
2022/10/22 02:03:32;;;;;;;4.63;2.40;;;;;;;14.48;57.89;100605.50;5010452;28;20439;-69
2022/10/22 02:06:08;;;;;;;3.63;2.50;;;;;;;14.49;57.84;100602.59;5008308;28;20129;-69
2022/10/22 02:08:37;;;;;;;4.60;2.25;;;;;;;14.46;58.03;100600.13;4998857;28;20113;-69
2022/10/22 02:11:06;;;;;;;3.90;2.42;;;;;;;14.48;58.08;100597.22;5007051;28;20050;-69
2022/10/22 02:13:39;;;;;;;4.47;2.47;;;;;;;14.49;57.67;100597.06;5000404;28;20485;-69
2022/10/22 02:16:12;;;;;;;3.67;2.08;;;;;;;14.49;57.61;100607.22;5009598;28;20049;-69
2022/10/22 02:18:44;;;;;;;5.20;2.40;;;;;;;14.49;58.04;100598.97;4998162;28;20168;-69
2022/10/22 02:21:13;;;;;;;;;;;;;;;14.20;58.64;100602.91;5005731;28;20049;-69
2022/10/22 02:23:41;;;;;;;3.58;2.20;;;;;;;14.42;58.21;100601.50;5005739;28;19929;-69
2022/10/22 02:26:16;;;;;;;5.13;2.50;;;;;;;14.49;58.07;100612.72;5008739;28;20128;-69
2022/10/22 02:28:50;;;;;;;4.78;2.47;;;;;;;14.48;57.56;100613.75;4999533;28;20039;-69
2022/10/22 02:31:23;;;;;;;3.50;2.03;;;;;;;14.49;57.80;100612.72;5003219;28;20060;-69
2022/10/22 02:33:55;;;;;;;4.28;2.15;;;;;;;14.47;57.53;100610.13;5009759;28;20111;-69
2022/10/22 02:36:24;;;;;;;5.93;2.67;;;;;;;14.46;57.84;100613.88;5006414;28;20057;-69
2022/10/22 02:38:54;;;;;;;4.40;2.45;;;;;;;14.48;57.97;100609.13;5003887;28;20065;-69
2022/10/22 02:41:23;;;;;;;7.13;2.40;;;;;;;14.48;58.01;100611.88;5000622;28;20048;-69
2022/10/22 02:43:54;;;;;;;4.50;2.67;;;;;;;14.49;57.88;100610.84;4991795;28;20049;-69
2022/10/22 02:46:25;;;;;;;4.70;2.20;;;;;;;14.49;58.14;100616.34;5009714;28;20069;-69
2022/10/22 02:48:53;;;;;;;4.10;2.05;;;;;;;14.48;57.67;100619.25;5001061;28;20042;-70
2022/10/22 02:51:21;;;;;;;4.03;2.25;;;;;;;14.48;58.20;100624.78;5002806;28;20463;-69
2022/10/22 02:53:49;;;;;;;5.40;2.60;;;;;;;14.48;58.31;100619.25;5001473;28;20050;-69
2022/10/22 02:56:17;;;;;;;3.67;2.47;;;;;;;14.49;57.95;100621.84;5002329;28;20058;-69
2022/10/22 02:58:45;;;;;;;5.32;2.47;;;;;;;14.50;57.80;100619.97;5002854;28;20619;-69
2022/10/22 03:01:13;;;;;;;5.53;2.60;;;;;;;14.50;57.71;100620.84;4993144;28;20045;-69
2022/10/22 03:03:44;;;;;;;5.03;2.67;;;;;;;14.52;57.91;100627.00;5006155;28;20320;-69
2022/10/22 03:06:12;;;;;;;4.10;2.50;;;;;;;14.51;57.96;100624.44;5010419;28;20077;-69
2022/10/22 03:08:41;;;;;;;4.68;2.60;;;;;;;14.51;58.44;100617.06;5001174;28;20046;-69
2022/10/22 03:11:09;;;;;;;4.82;2.60;;;;;;;14.52;57.89;100617.91;4984855;28;20259;-69
2022/10/22 03:13:37;;;;;;;4.50;2.72;;;;;;;14.54;57.74;100615.84;5006169;28;20077;-69
2022/10/22 03:16:06;;;;;;;4.07;2.47;;;;;;;14.54;57.61;100626.84;5008584;28;20635;-68
2022/10/22 03:18:35;;;;;;;3.63;2.47;;;;;;;14.53;58.13;100619.63;5009203;28;20049;-68
2022/10/22 03:21:10;;;;;;;4.57;2.30;;;;;;;14.54;58.01;100616.69;4998512;28;20373;-68
2022/10/22 03:23:40;;;;;;;4.13;2.35;;;;;;;14.54;57.87;100624.09;5002597;28;20046;-68
2022/10/22 03:26:09;;;;;;;3.67;2.50;;;;;;;14.52;58.08;100626.19;5010496;28;20529;-68
2022/10/22 03:28:38;;;;;;;4.85;2.55;;;;;;;14.50;58.14;100620.84;5005805;28;20038;-68
2022/10/22 03:31:06;;;;;;;5.05;2.28;;;;;;;14.50;57.88;100625.47;4999701;28;20129;-68
2022/10/22 03:33:34;;;;;;;5.35;2.65;;;;;;;14.50;57.70;100625.47;4998711;28;20042;-68
2022/10/22 03:36:02;;;;;;;5.25;2.78;;;;;;;14.48;57.73;100628.38;5008760;28;20111;-68
2022/10/22 03:38:31;;;;;;;4.25;2.65;;;;;;;14.50;58.07;100633.72;5011107;28;20053;-69
2022/10/22 03:40:59;;;;;;;3.90;2.35;;;;;;;14.49;57.85;100637.50;4997452;28;20043;-68
2022/10/22 03:43:27;;;;;;;4.97;2.60;;;;;;;14.48;58.20;100633.03;5003532;28;20069;-68
2022/10/22 03:45:55;;;;;;;6.80;2.97;;;;;;;14.47;57.77;100631.25;4999539;28;20058;-68
2022/10/22 03:48:24;;;;;;;4.05;2.45;;;;;;;14.48;58.05;100639.41;5006995;28;20038;-69
2022/10/22 03:50:52;;;;;;;4.55;2.50;;;;;;;14.48;57.92;100633.03;4996993;28;20049;-68
2022/10/22 03:53:20;;;;;;;4.50;2.60;;;;;;;14.47;57.60;100632.16;4997060;28;20038;-69
2022/10/22 03:55:49;;;;;;;4.70;2.50;;;;;;;14.48;58.01;100633.91;5004246;28;20038;-68
2022/10/22 03:58:17;;;;;;;4.07;2.50;;;;;;;14.46;57.51;100633.16;4994077;28;20492;-69
2022/10/22 04:00:45;;;;;;;3.58;2.50;;;;;;;14.45;57.57;100636.94;5006060;28;20050;-68
2022/10/22 04:03:13;;;;;;;4.68;2.95;;;;;;;14.45;57.51;100636.06;5002171;28;20441;-69
2022/10/22 04:05:41;;;;;;;4.93;2.58;;;;;;;14.44;57.58;100648.97;4993611;28;20069;-68
2022/10/22 04:08:09;;;;;;;4.07;2.50;;;;;;;14.45;57.70;100655.34;5013667;28;20072;-68
2022/10/22 04:10:37;;;;;;;5.05;2.50;;;;;;;14.43;57.96;100651.91;5017883;28;20512;-69
2022/10/22 04:13:07;;;;;;;3.85;2.65;;;;;;;14.46;58.26;100662.56;5013411;28;20092;-69
2022/10/22 04:15:35;;;;;;;5.75;2.80;;;;;;;14.44;57.86;100659.13;5009905;28;20046;-69
2022/10/22 04:18:03;;;;;;;4.40;2.35;;;;;;;14.45;57.82;100666.34;5008150;28;20061;-68
2022/10/22 04:20:31;;;;;;;6.13;2.55;;;;;;;14.44;58.36;100662.75;5004723;28;20056;-69
2022/10/22 04:22:59;;;;;;;3.75;2.47;;;;;;;14.45;58.29;100663.59;5006843;28;20041;-68
2022/10/22 04:25:27;;;;;;;5.47;2.60;;;;;;;14.46;58.34;100665.34;5011872;28;20085;-69
2022/10/22 04:27:55;;;;;;;4.72;2.60;;;;;;;14.45;58.31;100664.47;5000711;28;20510;-68
2022/10/22 04:30:24;;;;;;;3.90;2.50;;;;;;;14.48;58.20;100671.59;5011350;28;20054;-68
2022/10/22 04:32:52;;;;;;;5.22;2.42;;;;;;;14.48;58.17;100674.34;5011032;28;20516;-69
2022/10/22 04:35:20;;;;;;;4.28;2.60;;;;;;;14.48;58.33;100679.84;5011714;28;20038;-69
2022/10/22 04:37:48;;;;;;;5.15;2.65;;;;;;;14.47;58.13;100673.47;5009648;28;20100;-68
2022/10/22 04:40:16;;;;;;;5.72;2.75;;;;;;;14.47;58.00;100678.97;5004225;28;20580;-69
2022/10/22 04:42:44;;;;;;;5.97;3.28;;;;;;;14.45;57.88;100688.38;5011003;28;20061;-68
2022/10/22 04:45:14;;;;;;;6.68;3.10;;;;;;;14.45;58.13;100680.13;4998908;28;20052;-69
2022/10/22 04:47:43;;;;;;;5.10;2.80;;;;;;;14.45;57.90;100693.88;5004908;28;20046;-68
2022/10/22 04:50:11;;;;;;;4.85;2.90;;;;;;;14.42;57.56;100686.84;4999695;28;20567;-68
2022/10/22 04:52:39;;;;;;;5.15;2.80;;;;;;;14.42;57.62;100695.09;5012267;28;20038;-68
2022/10/22 04:55:08;;;;;;;3.97;2.53;;;;;;;14.41;57.97;100684.25;4997053;28;20050;-69
2022/10/22 04:57:36;;;;;;;4.72;2.58;;;;;;;14.41;57.81;100692.50;5002774;28;20235;-69
2022/10/22 05:00:05;;;;;;;4.50;2.70;;;;;;;14.41;57.91;100692.50;5012861;28;20038;-69
2022/10/22 05:02:33;;;;;;;5.70;2.88;;;;;;;14.39;57.96;100678.91;5011229;28;20084;-69
2022/10/22 05:05:04;;;;;;;5.38;2.90;;;;;;;14.41;57.41;100696.13;4994735;28;20049;-68
2022/10/22 05:07:32;;;;;;;4.75;2.63;;;;;;;14.37;57.48;100697.47;4996576;28;20050;-68
2022/10/22 05:10:01;;;;;;;5.13;2.53;;;;;;;14.37;57.93;100697.47;5001373;28;20081;-69
2022/10/22 05:12:29;;;;;;;3.88;2.80;;;;;;;14.36;57.60;100702.09;5006976;28;20168;-69
2022/10/22 05:14:57;;;;;;;5.97;2.80;;;;;;;14.36;57.80;100710.38;5011759;28;20121;-68
2022/10/22 05:17:26;;;;;;;5.20;2.78;;;;;;;14.35;57.49;100707.81;5010255;28;20037;-69
2022/10/22 05:19:57;;;;;;;4.57;2.83;;;;;;;14.35;57.78;100705.88;5002929;28;20065;-69
2022/10/22 05:22:26;;;;;;;4.55;2.53;;;;;;;14.35;57.78;100707.81;5010278;28;20103;-68
2022/10/22 05:24:54;;;;;;;4.85;2.92;;;;;;;14.34;57.64;100722.59;5004299;28;20353;-68
2022/10/22 05:27:22;;;;;;;6.15;3.30;;;;;;;14.33;57.49;100709.84;5007329;28;20591;-68
2022/10/22 05:29:50;;;;;;;4.55;3.00;;;;;;;14.33;57.40;100720.84;5002029;28;20096;-68
2022/10/22 05:32:18;;;;;;;5.53;3.22;;;;;;;14.32;57.73;100713.63;5001508;28;20138;-69
2022/10/22 05:34:46;;;;;;;5.07;3.00;;;;;;;14.31;57.70;100721.00;5010772;28;20354;-69
2022/10/22 05:37:14;;;;;;;5.00;3.10;;;;;;;14.31;57.68;100728.41;5011516;28;20058;-69
2022/10/22 05:39:43;;;;;;;4.15;2.85;;;;;;;14.32;57.61;100727.38;5015535;28;20057;-68
2022/10/22 05:42:11;;;;;;;4.57;2.78;;;;;;;14.29;57.52;100728.56;5001828;28;20042;-67
2022/10/22 05:44:39;;;;;;;5.93;2.90;;;;;;;14.28;57.37;100732.34;5009861;28;20038;-68
2022/10/22 05:47:08;;;;;;;4.78;2.72;;;;;;;14.28;57.25;100731.47;5004320;28;20035;-67
2022/10/22 05:49:36;;;;;;;5.32;2.97;;;;;;;14.27;57.57;100736.09;5006260;28;20097;-68
2022/10/22 05:52:04;;;;;;;5.15;2.90;;;;;;;14.27;57.77;100738.03;5006233;28;20054;-69
2022/10/22 05:54:32;;;;;;;5.18;2.80;;;;;;;14.26;57.54;100739.06;5010383;28;20516;-69
2022/10/22 05:57:02;;;;;;;5.20;2.88;;;;;;;14.26;57.21;100744.56;5009817;28;20510;-69
2022/10/22 05:59:30;;;;;;;4.82;3.05;;;;;;;14.23;57.63;100742.13;5005640;28;20042;-69
2022/10/22 06:01:58;;;;;;;4.63;2.70;;;;;;;14.21;57.15;100752.41;5007783;28;20053;-68
2022/10/22 06:04:26;;;;;;;5.75;2.63;;;;;;;14.20;57.68;100751.53;5009732;28;20034;-69
2022/10/22 06:06:54;;;;;;;4.85;2.90;;;;;;;14.20;57.67;100754.28;4992637;28;20053;-69
2022/10/22 06:09:26;;;;;;;5.05;3.10;;;;;;;14.21;57.41;100757.91;4990184;28;20046;-69
2022/10/22 06:11:55;;;;;;;5.30;2.70;;;;;;;14.17;57.44;100751.03;5012858;28;20065;-69
2022/10/22 06:14:25;;;;;;;4.45;2.67;;;;;;;14.20;57.59;100756.19;4999669;28;20042;-69
2022/10/22 06:16:54;;;;;;;6.07;2.65;;;;;;;14.19;57.57;100762.75;5005955;28;20073;-69
2022/10/22 06:19:24;;;;;;;4.78;3.30;;;;;;;14.19;57.81;100765.50;5010012;28;20030;-68
2022/10/22 06:21:52;;;;;;;4.88;2.95;;;;;;;14.17;57.87;100768.41;5009912;28;20077;-68
2022/10/22 06:24:20;;;;;;;4.68;3.10;;;;;;;14.18;58.17;100766.50;5010036;28;20404;-68
2022/10/22 06:26:50;;;;;;;4.88;3.13;;;;;;;14.19;58.04;100774.59;5007682;28;20046;-68
2022/10/22 06:29:18;;;;;;;4.72;3.10;;;;;;;14.18;57.85;100777.53;4997522;28;20034;-68
2022/10/22 06:31:47;;;;;;;5.30;2.90;;;;;;;14.21;57.88;100785.44;5005629;28;20516;-70
2022/10/22 06:34:17;;;;;;;4.60;2.63;;;;;;;14.20;58.28;100795.59;5009762;28;20038;-70
2022/10/22 06:36:45;;;;;;;4.13;2.50;;;;;;;14.21;57.78;100800.06;5006869;28;20107;-70
2022/10/22 06:39:15;;;;;;;4.53;3.17;;;;;;;14.24;58.37;100810.78;5010137;28;20034;-68
2022/10/22 06:41:43;;;;;;;4.82;3.03;;;;;;;14.24;58.46;100796.16;4992188;28;20042;-70
2022/10/22 06:44:15;;;;;;;5.82;3.22;;;;;;;14.28;58.24;100803.03;5008971;28;20359;-70
2022/10/22 06:46:43;;;;;;;4.90;2.65;;;;;;;14.30;58.35;100806.50;5002684;28;20065;-70
2022/10/22 06:49:25;;;;;;;5.38;2.58;;;;;;;14.34;58.43;100817.06;5004931;28;20034;-70
2022/10/22 06:52:00;;;;;;;5.95;2.78;;;;;;;14.37;58.72;100821.34;5087092;27;20491;-70
2022/10/22 06:54:28;;;;;;;4.35;2.80;;;;;;;14.38;58.46;100821.19;5074132;28;20128;-70
2022/10/22 06:56:56;;;;;;;6.93;2.97;;;;;;;14.41;58.12;100830.19;5066889;28;20564;-70
2022/10/22 06:59:23;;;;;;;6.05;2.83;;;;;;;14.44;58.01;100838.97;5066323;28;20562;-70
2022/10/22 07:01:51;;;;;;;6.32;2.63;;;;;;;14.46;58.32;100833.31;5050792;28;20041;-71
2022/10/22 07:04:19;;;;;;;5.40;2.85;;;;;;;14.48;58.20;100837.66;5046603;28;20037;-71
2022/10/22 07:06:47;;;;;;;5.68;3.10;;;;;;;14.50;58.30;100835.63;5045477;28;20049;-70
2022/10/22 07:09:16;;;;;;;5.18;2.63;;;;;;;14.56;58.22;100839.63;5049039;28;20045;-70
2022/10/22 07:11:45;;;;;;;5.70;2.70;;;;;;;14.60;58.82;100843.78;5070627;28;20063;-70
2022/10/22 07:14:14;;;;;;;4.65;2.45;;;;;;;14.64;58.86;100840.53;5075617;28;20060;-70
2022/10/22 07:16:44;;;;;;;4.43;2.80;;;;;;;14.70;58.54;100856.41;5047356;28;20506;-70
2022/10/22 07:19:13;;;;;;;5.10;2.90;;;;;;;14.76;58.86;100858.50;5045082;28;20045;-70
2022/10/22 07:21:41;;;;;;;4.93;2.65;;;;;;;14.83;58.49;100860.66;5058700;28;20527;-70
2022/10/22 07:24:09;;;;;;;6.82;2.40;;;;;;;14.89;58.96;100869.13;5064058;28;20052;-70
2022/10/22 07:26:59;;;;;;;3.95;2.45;;;;;;;14.95;58.23;100865.72;5070886;22;20111;31
2022/10/22 07:29:28;;;;;;;4.70;2.70;;;;;;;15.01;58.23;100865.03;5025890;28;20077;-69
2022/10/22 07:31:56;;;;;;;4.80;2.38;;;;;;;15.08;58.62;100876.31;5025200;28;20069;-69
2022/10/22 07:34:24;;;;;;;6.10;2.70;;;;;;;15.14;58.03;100868.25;5003300;28;20045;-69
2022/10/22 07:36:52;;;;;;;3.85;2.17;;;;;;;15.21;57.66;100870.34;5031134;28;20057;-69
2022/10/22 07:39:20;;;;;;;5.97;3.00;;;;;;;15.24;57.31;100886.56;5035368;28;20038;-69
2022/10/22 07:41:48;;;;;;;4.50;2.50;;;;;;;15.27;57.32;100884.31;5010963;28;20066;-69
2022/10/22 07:44:18;;;;;;;5.20;2.60;;;;;;;15.31;57.29;100891.25;5003963;28;20448;-69
2022/10/22 07:46:45;;;;;;;4.72;3.13;;;;;;;15.32;56.81;100884.72;5014050;28;20057;-69
2022/10/22 07:49:15;;;;;;;5.35;2.50;;;;;;;15.32;57.22;100889.34;5009706;28;20405;-69
2022/10/22 07:51:43;;;;;;;4.70;2.95;;;;;;;15.32;56.75;100904.00;5018623;28;20387;-68
2022/10/22 07:54:12;;;;;;;5.63;2.50;;;;;;;15.33;56.96;100896.59;5005162;28;20443;-69
2022/10/22 07:56:39;;;;;;;4.20;2.22;;;;;;;15.32;56.86;100909.53;5006491;28;20089;-69
2022/10/22 07:59:08;;;;;;;5.05;2.38;;;;;;;15.34;56.87;100914.91;5005157;28;20101;-69
2022/10/22 08:01:37;;;;;;;5.57;2.45;;;;;;;15.34;56.46;100904.72;5005099;28;20065;-69
2022/10/22 08:04:07;;;;;;;3.53;2.22;;;;;;;15.33;56.49;100914.03;4983935;28;20484;-69
2022/10/22 08:06:37;;;;;;;3.90;2.58;;;;;;;15.33;56.49;100915.91;4992902;28;20054;-69
2022/10/22 08:09:05;;;;;;;6.45;2.38;;;;;;;15.32;56.90;100920.56;4994170;28;20304;-69
2022/10/22 08:11:33;;;;;;;4.60;2.15;;;;;;;15.33;56.67;100918.66;4991767;28;20050;-69
2022/10/22 08:14:01;;;;;;;4.20;2.47;;;;;;;15.31;56.68;100932.63;4991677;28;20267;-69
2022/10/22 08:16:30;;;;;;;5.18;2.63;;;;;;;15.31;56.66;100937.25;5002956;28;20053;-69
2022/10/22 08:18:59;;;;;;;4.70;2.58;;;;;;;15.32;56.41;100930.72;5011763;28;20046;-69
2022/10/22 08:21:27;;;;;;;5.55;2.38;;;;;;;15.30;56.38;100938.28;5011202;28;20050;-68
2022/10/22 08:23:55;;;;;;;3.72;2.40;;;;;;;15.29;56.30;100939.31;5009281;28;20046;-69
2022/10/22 08:26:23;;;;;;;5.43;2.70;;;;;;;15.27;56.35;100944.97;5011069;28;20046;-69
2022/10/22 08:28:52;;;;;;;5.28;2.53;;;;;;;15.26;55.83;100943.25;5069096;22;20056;-69
2022/10/22 08:31:20;;;;;;;4.32;2.22;;;;;;;15.26;55.93;100953.44;5052526;28;20041;-70
2022/10/22 08:33:47;;;;;;;5.55;2.00;;;;;;;15.25;55.62;100954.47;5051230;28;20032;-69
2022/10/22 08:36:17;;;;;;;3.50;2.10;;;;;;;15.25;55.89;100954.47;5035721;28;20116;-70
2022/10/22 08:38:45;;;;;;;5.03;2.10;;;;;;;15.23;56.04;100967.53;5030784;28;20055;-69
2022/10/22 08:41:15;;;;;;;5.57;1.98;;;;;;;15.23;55.32;100964.78;5029129;28;20041;-69
2022/10/22 08:44:01;;;;;;;3.67;1.85;;;;;;;15.23;55.21;100968.41;5028956;28;20037;-70
2022/10/22 08:46:44;;;;;;;3.40;1.98;;;;;;;15.22;55.37;100966.66;5046871;28;20080;-69
2022/10/22 08:49:18;;;;;;;4.32;1.88;;;;;;;15.19;55.11;100969.75;5036115;28;20053;-70
2022/10/22 08:51:47;;;;;;;3.35;1.67;;;;;;;15.21;55.20;100969.59;5025081;28;20052;-70
2022/10/22 08:54:22;;;;;;;3.88;1.83;;;;;;;15.23;55.39;100978.56;5035180;28;20498;-70
2022/10/22 08:57:02;;;;;;;4.50;2.00;;;;;;;15.23;54.91;100981.31;5041263;28;20049;-71
2022/10/22 08:59:38;;;;;;;3.33;1.77;;;;;;;15.22;54.75;100980.47;5031254;28;20414;-70
2022/10/22 09:02:20;;;;;;;4.00;1.60;;;;;;;15.24;55.20;100978.41;5019355;28;20518;-70
2022/10/22 09:04:53;;;;;;;2.63;1.67;;;;;;;15.25;55.33;100980.16;5031889;28;20053;-71
2022/10/22 09:07:24;;;;;;;4.35;1.63;;;;;;;15.27;54.99;100991.84;5045320;28;20045;-71
2022/10/22 09:09:55;;;;;;;2.85;1.55;;;;;;;15.29;55.25;100995.31;5028292;28;20489;-70
2022/10/22 09:12:25;;;;;;;3.53;1.55;;;;;;;15.30;55.28;100985.16;5029861;28;20140;-70
2022/10/22 09:14:52;;;;;;;3.70;1.70;;;;;;;15.30;55.38;100994.31;5033564;28;20040;-71
2022/10/22 09:17:32;;;;;;;3.90;2.00;;;;;;;15.34;54.53;101001.25;5035678;28;20044;-70
2022/10/22 09:20:09;;;;;;;4.38;1.80;;;;;;;15.34;55.23;100994.88;5023133;28;20128;-70
2022/10/22 09:22:46;;;;;;;3.45;1.83;;;;;;;15.36;54.57;100995.56;5007202;28;20136;-70
2022/10/22 09:25:21;;;;;;;3.17;1.50;;;;;;;15.38;54.40;101001.78;5009762;28;20506;-73
2022/10/22 09:27:51;;;;;;;6.10;1.95;;;;;;;15.38;55.22;100996.28;5035923;28;20048;-72
2022/10/22 09:30:21;;;;;;;3.80;1.50;;;;;;;15.39;54.67;100995.25;5028923;28;20049;-71
2022/10/22 09:32:51;;;;;;;4.15;1.60;;;;;;;15.41;54.49;101004.25;5051166;28;20094;-73
2022/10/22 09:35:23;;;;;;;5.43;1.63;;;;;;;15.41;54.39;100996.84;5050374;28;20045;-74
2022/10/22 09:37:55;;;;;;;2.70;1.60;;;;;;;15.43;54.67;101005.78;5052001;28;20045;-74
2022/10/22 09:40:24;;;;;;;2.78;1.30;;;;;;;15.41;54.61;101007.00;5045771;28;20043;-71
2022/10/22 09:42:51;;;;;;;4.55;1.40;;;;;;;15.43;54.54;101013.19;5039805;28;20048;-75
2022/10/22 09:45:21;;;;;;;3.45;1.25;;;;;;;15.46;54.41;101012.88;5039791;28;20055;-72
2022/10/22 09:47:49;;;;;;;3.45;1.55;;;;;;;15.46;54.30;101013.75;5064879;28;20101;-71
2022/10/22 09:50:38;;;;;;;3.67;1.90;;;;;;;15.48;54.30;101016.34;5055442;28;20067;-73
2022/10/22 09:53:13;;;;;;;6.00;1.65;;;;;;;15.49;53.31;101018.94;5049387;28;20140;-72
2022/10/22 09:55:43;;;;;;;4.05;1.20;;;;;;;15.48;54.23;101014.47;5041644;28;20083;-71
2022/10/22 09:58:13;;;;;;;4.63;1.50;;;;;;;15.50;54.04;101028.97;5056262;28;20047;-70
2022/10/22 10:00:46;;;;;;;3.40;1.40;;;;;;;15.52;54.01;101028.78;5055231;28;21562;-72
2022/10/22 10:03:19;;;;;;;4.13;1.40;;;;;;;15.52;53.40;101018.59;5054600;28;20072;-73
2022/10/22 10:05:51;;;;;;;3.83;1.20;;;;;;;15.52;53.88;101028.78;5042731;28;20044;-72
2022/10/22 10:08:20;;;;;;;4.30;1.48;;;;;;;15.54;53.34;101040.50;5058583;28;20382;-72
2022/10/22 10:10:51;;;;;;;4.45;1.33;;;;;;;15.55;53.19;101045.00;5049493;28;20099;-73
2022/10/22 10:13:38;;;;;;;5.03;1.33;;;;;;;15.56;52.37;101043.13;5040166;28;20417;-73
2022/10/22 10:16:15;;;;;;;5.03;1.42;;;;;;;15.56;53.00;101046.75;5034501;28;20128;-73
2022/10/22 10:18:56;;;;;;;3.25;1.00;;;;;;;15.58;53.00;101049.34;5051288;28;20044;-74
2022/10/22 10:21:31;;;;;;;3.50;1.40;;;;;;;15.58;53.04;101055.72;5051089;28;20061;-64
2022/10/22 10:24:08;;;;;;;3.78;1.30;;;;;;;15.61;52.91;101057.28;5049322;28;20052;-64
2022/10/22 10:26:44;;;;;;;4.70;1.10;;;;;;;15.61;53.42;101058.16;5052881;28;20140;-64
2022/10/22 10:29:22;;;;;;;2.75;1.10;;;;;;;15.64;52.63;101054.22;5052071;28;20497;-65
2022/10/22 10:32:06;;;;;;;3.15;1.10;;;;;;;15.66;52.70;101060.44;5032454;28;20509;-74
2022/10/22 10:34:45;;;;;;;3.03;1.20;;;;;;;15.68;52.51;101066.63;5033590;28;20048;-71
2022/10/22 10:37:22;;;;;;;3.00;1.13;;;;;;;15.70;52.40;101067.34;5041027;28;20469;-73
2022/10/22 10:40:23;;;;;;;1.83;0.90;;;;;;;15.69;52.23;101077.50;5047887;28;20037;-73
2022/10/22 10:42:59;;;;;;;2.30;1.27;;;;;;;15.70;52.40;101068.22;5048746;28;20045;-74
2022/10/22 10:45:36;;;;;;;1.80;0.80;;;;;;;15.77;52.33;101077.56;5038633;28;20390;-72
2022/10/22 10:48:23;;;;;;;2.05;1.05;;;;;;;15.78;51.86;101082.06;5027436;28;20496;-73
2022/10/22 10:51:02;;;;;;;3.53;1.05;;;;;;;15.80;52.10;101084.66;5035407;28;20053;-72
2022/10/22 10:53:52;;;;;;;3.03;0.90;;;;;;;15.80;51.48;101082.78;5047513;28;20049;-72
2022/10/22 10:56:35;;;;;;;2.83;1.05;;;;;;;15.81;51.53;101075.34;5048166;28;20041;-72
2022/10/22 10:59:17;;;;;;;4.82;1.10;;;;;;;15.83;51.19;101082.44;5056861;28;20037;-72
2022/10/22 11:01:59;;;;;;;2.60;0.90;;;;;;;15.84;51.07;101073.13;5038021;28;20109;-73
2022/10/22 11:04:47;;;;;;;1.80;0.88;;;;;;;15.83;51.38;101092.63;5039208;28;20099;-72
2022/10/22 11:07:19;;;;;;;2.80;1.05;;;;;;;15.84;51.45;101092.44;5046284;28;20481;-72
2022/10/22 11:10:09;;;;;;;3.67;0.90;;;;;;;15.84;51.70;101086.91;5032046;28;20067;-72
2022/10/22 11:12:44;;;;;;;2.17;0.90;;;;;;;15.86;51.36;101090.38;5036234;28;20060;-73
2022/10/22 11:15:22;;;;;;;1.40;0.65;;;;;;;15.86;50.83;101090.38;5049176;28;20509;-73
2022/10/22 11:17:54;;;;;;;3.03;1.00;;;;;;;15.86;51.42;101095.91;5046284;28;20404;-72
2022/10/22 11:20:28;;;;;;;2.50;1.00;;;;;;;15.86;51.26;101095.03;5054887;28;20045;-72
2022/10/22 11:23:03;;;;;;;2.80;0.80;;;;;;;15.88;50.75;101104.03;5016320;28;20054;-73
2022/10/22 11:25:50;;;;;;;2.40;0.90;;;;;;;15.83;51.44;101092.63;5051518;28;20094;-72
2022/10/22 11:28:23;;;;;;;3.75;1.08;;;;;;;15.87;51.01;101102.28;5056451;28;20122;-72
2022/10/22 11:31:00;;;;;;;2.88;1.40;;;;;;;15.88;50.50;101104.03;5038544;28;20139;-72
2022/10/22 11:33:36;;;;;;;3.95;1.00;;;;;;;15.87;50.16;101103.16;5049607;28;20051;-72
2022/10/22 11:36:07;;;;;;;3.00;1.10;;;;;;;15.87;51.09;101102.28;5040717;28;20057;-72
2022/10/22 11:38:35;;;;;;;2.20;1.02;;;;;;;15.84;50.94;101095.19;5036218;28;20353;-72
2022/10/22 11:41:06;;;;;;;4.05;1.10;;;;;;;15.87;50.92;101102.28;5060969;28;20053;-73
2022/10/22 11:43:55;;;;;;;1.48;0.90;;;;;;;15.84;49.83;101095.19;5054520;28;20434;-73